sensor_id;sensor_type;location;lat;lon;timestamp;P1;durP1;ratioP1;P2;durP2;ratioP2
42832;SDS011;28479;51.478;5.692;2022-07-21T00:00:41;8.43;;;4.70;;
42832;SDS011;28479;51.478;5.692;2022-07-21T00:03:07;6.82;;;5.13;;
42832;SDS011;28479;51.478;5.692;2022-07-21T00:05:32;9.85;;;5.72;;
42832;SDS011;28479;51.478;5.692;2022-07-21T00:07:59;8.75;;;5.72;;
42832;SDS011;28479;51.478;5.692;2022-07-21T00:10:25;11.70;;;6.15;;
42832;SDS011;28479;51.478;5.692;2022-07-21T00:12:52;9.73;;;5.55;;
42832;SDS011;28479;51.478;5.692;2022-07-21T00:15:19;7.57;;;4.85;;
42832;SDS011;28479;51.478;5.692;2022-07-21T00:17:46;9.00;;;5.28;;
42832;SDS011;28479;51.478;5.692;2022-07-21T00:20:13;7.43;;;4.90;;
42832;SDS011;28479;51.478;5.692;2022-07-21T00:22:40;9.60;;;5.63;;
42832;SDS011;28479;51.478;5.692;2022-07-21T00:25:06;9.00;;;5.20;;
42832;SDS011;28479;51.478;5.692;2022-07-21T00:27:33;10.32;;;6.32;;
42832;SDS011;28479;51.478;5.692;2022-07-21T00:30:00;10.88;;;6.13;;
42832;SDS011;28479;51.478;5.692;2022-07-21T00:32:26;10.50;;;5.55;;
42832;SDS011;28479;51.478;5.692;2022-07-21T00:34:51;10.70;;;6.22;;
42832;SDS011;28479;51.478;5.692;2022-07-21T00:37:17;9.25;;;5.78;;
42832;SDS011;28479;51.478;5.692;2022-07-21T00:39:43;13.65;;;6.43;;
42832;SDS011;28479;51.478;5.692;2022-07-21T00:42:18;11.27;;;5.82;;
42832;SDS011;28479;51.478;5.692;2022-07-21T00:44:45;8.65;;;5.68;;
42832;SDS011;28479;51.478;5.692;2022-07-21T00:47:10;8.95;;;5.18;;
42832;SDS011;28479;51.478;5.692;2022-07-21T00:49:36;7.45;;;5.53;;
42832;SDS011;28479;51.478;5.692;2022-07-21T00:52:02;12.25;;;5.90;;
42832;SDS011;28479;51.478;5.692;2022-07-21T00:54:28;9.05;;;5.82;;
42832;SDS011;28479;51.478;5.692;2022-07-21T00:56:54;11.65;;;6.05;;
42832;SDS011;28479;51.478;5.692;2022-07-21T00:59:19;9.00;;;5.38;;
42832;SDS011;28479;51.478;5.692;2022-07-21T01:01:45;11.45;;;5.82;;
42832;SDS011;28479;51.478;5.692;2022-07-21T01:04:11;14.35;;;5.35;;
42832;SDS011;28479;51.478;5.692;2022-07-21T01:06:36;8.75;;;5.47;;
42832;SDS011;28479;51.478;5.692;2022-07-21T01:09:02;9.90;;;6.15;;
42832;SDS011;28479;51.478;5.692;2022-07-21T01:11:28;9.95;;;6.10;;
42832;SDS011;28479;51.478;5.692;2022-07-21T01:13:54;11.63;;;6.32;;
42832;SDS011;28479;51.478;5.692;2022-07-21T01:16:20;11.80;;;6.28;;
42832;SDS011;28479;51.478;5.692;2022-07-21T01:18:46;10.52;;;5.40;;
42832;SDS011;28479;51.478;5.692;2022-07-21T01:26:09;11.85;;;6.38;;
42832;SDS011;28479;51.478;5.692;2022-07-21T01:28:34;12.50;;;6.13;;
42832;SDS011;28479;51.478;5.692;2022-07-21T01:31:00;10.48;;;6.38;;
42832;SDS011;28479;51.478;5.692;2022-07-21T01:33:25;9.05;;;5.68;;
42832;SDS011;28479;51.478;5.692;2022-07-21T01:35:51;15.50;;;6.55;;
42832;SDS011;28479;51.478;5.692;2022-07-21T01:38:16;12.55;;;6.50;;
42832;SDS011;28479;51.478;5.692;2022-07-21T01:41:01;12.90;;;6.72;;
42832;SDS011;28479;51.478;5.692;2022-07-21T01:43:45;12.23;;;6.22;;
42832;SDS011;28479;51.478;5.692;2022-07-21T01:46:11;10.65;;;6.00;;
42832;SDS011;28479;51.478;5.692;2022-07-21T01:48:43;10.57;;;6.38;;
42832;SDS011;28479;51.478;5.692;2022-07-21T01:51:09;14.23;;;6.18;;
42832;SDS011;28479;51.478;5.692;2022-07-21T01:53:36;11.50;;;5.80;;
42832;SDS011;28479;51.478;5.692;2022-07-21T01:56:02;11.32;;;6.78;;
42832;SDS011;28479;51.478;5.692;2022-07-21T01:58:29;11.00;;;6.53;;
42832;SDS011;28479;51.478;5.692;2022-07-21T02:00:55;10.60;;;6.35;;
42832;SDS011;28479;51.478;5.692;2022-07-21T02:03:21;14.10;;;6.47;;
42832;SDS011;28479;51.478;5.692;2022-07-21T02:05:46;11.68;;;6.43;;
42832;SDS011;28479;51.478;5.692;2022-07-21T02:08:12;9.50;;;5.72;;
42832;SDS011;28479;51.478;5.692;2022-07-21T02:10:38;11.00;;;6.15;;
42832;SDS011;28479;51.478;5.692;2022-07-21T02:13:03;11.93;;;6.63;;
42832;SDS011;28479;51.478;5.692;2022-07-21T02:15:29;9.40;;;5.90;;
42832;SDS011;28479;51.478;5.692;2022-07-21T02:17:56;9.25;;;6.00;;
42832;SDS011;28479;51.478;5.692;2022-07-21T02:20:24;12.15;;;6.28;;
42832;SDS011;28479;51.478;5.692;2022-07-21T02:22:50;9.77;;;6.03;;
42832;SDS011;28479;51.478;5.692;2022-07-21T02:25:17;10.63;;;6.30;;
42832;SDS011;28479;51.478;5.692;2022-07-21T02:27:44;10.07;;;5.40;;
42832;SDS011;28479;51.478;5.692;2022-07-21T02:30:10;15.57;;;7.43;;
42832;SDS011;28479;51.478;5.692;2022-07-21T02:32:36;11.05;;;6.38;;
42832;SDS011;28479;51.478;5.692;2022-07-21T02:35:02;12.50;;;6.70;;
42832;SDS011;28479;51.478;5.692;2022-07-21T02:37:29;10.45;;;6.47;;
42832;SDS011;28479;51.478;5.692;2022-07-21T02:39:54;11.02;;;6.70;;
42832;SDS011;28479;51.478;5.692;2022-07-21T02:42:20;12.00;;;6.13;;
42832;SDS011;28479;51.478;5.692;2022-07-21T02:44:45;11.75;;;6.78;;
42832;SDS011;28479;51.478;5.692;2022-07-21T02:47:11;12.38;;;6.82;;
42832;SDS011;28479;51.478;5.692;2022-07-21T02:49:37;18.10;;;6.50;;
42832;SDS011;28479;51.478;5.692;2022-07-21T02:52:02;12.90;;;6.65;;
42832;SDS011;28479;51.478;5.692;2022-07-21T02:54:28;12.18;;;6.57;;
42832;SDS011;28479;51.478;5.692;2022-07-21T02:56:59;8.93;;;6.25;;
42832;SDS011;28479;51.478;5.692;2022-07-21T02:59:25;10.88;;;6.70;;
42832;SDS011;28479;51.478;5.692;2022-07-21T03:01:50;11.63;;;6.82;;
42832;SDS011;28479;51.478;5.692;2022-07-21T03:04:16;13.85;;;6.72;;
42832;SDS011;28479;51.478;5.692;2022-07-21T03:06:42;12.00;;;7.13;;
42832;SDS011;28479;51.478;5.692;2022-07-21T03:09:08;13.80;;;7.95;;
42832;SDS011;28479;51.478;5.692;2022-07-21T03:11:34;13.30;;;6.93;;
42832;SDS011;28479;51.478;5.692;2022-07-21T03:14:00;13.25;;;7.22;;
42832;SDS011;28479;51.478;5.692;2022-07-21T03:16:26;10.50;;;6.70;;
42832;SDS011;28479;51.478;5.692;2022-07-21T03:18:52;21.10;;;7.13;;
42832;SDS011;28479;51.478;5.692;2022-07-21T03:21:17;21.45;;;7.45;;
42832;SDS011;28479;51.478;5.692;2022-07-21T03:23:44;12.38;;;6.47;;
42832;SDS011;28479;51.478;5.692;2022-07-21T03:26:13;13.82;;;8.43;;
42832;SDS011;28479;51.478;5.692;2022-07-21T03:28:40;13.60;;;7.82;;
42832;SDS011;28479;51.478;5.692;2022-07-21T03:31:07;11.77;;;7.78;;
42832;SDS011;28479;51.478;5.692;2022-07-21T03:33:32;19.05;;;8.43;;
42832;SDS011;28479;51.478;5.692;2022-07-21T03:35:58;16.73;;;7.68;;
42832;SDS011;28479;51.478;5.692;2022-07-21T03:38:25;15.57;;;8.27;;
42832;SDS011;28479;51.478;5.692;2022-07-21T03:40:51;12.07;;;7.82;;
42832;SDS011;28479;51.478;5.692;2022-07-21T03:43:17;12.95;;;7.50;;
42832;SDS011;28479;51.478;5.692;2022-07-21T03:45:43;14.88;;;7.72;;
42832;SDS011;28479;51.478;5.692;2022-07-21T03:48:09;12.40;;;7.75;;
42832;SDS011;28479;51.478;5.692;2022-07-21T03:50:37;13.90;;;7.97;;
42832;SDS011;28479;51.478;5.692;2022-07-21T03:53:05;13.07;;;7.95;;
42832;SDS011;28479;51.478;5.692;2022-07-21T03:55:31;12.63;;;8.57;;
42832;SDS011;28479;51.478;5.692;2022-07-21T03:58:01;19.10;;;8.73;;
42832;SDS011;28479;51.478;5.692;2022-07-21T04:03:02;13.75;;;8.38;;
42832;SDS011;28479;51.478;5.692;2022-07-21T04:05:29;16.42;;;8.27;;
42832;SDS011;28479;51.478;5.692;2022-07-21T04:07:55;15.30;;;8.15;;
42832;SDS011;28479;51.478;5.692;2022-07-21T04:10:23;13.07;;;8.40;;
42832;SDS011;28479;51.478;5.692;2022-07-21T04:12:51;16.60;;;7.72;;
42832;SDS011;28479;51.478;5.692;2022-07-21T04:15:18;16.20;;;7.32;;
42832;SDS011;28479;51.478;5.692;2022-07-21T04:17:44;13.90;;;8.10;;
42832;SDS011;28479;51.478;5.692;2022-07-21T04:20:10;18.65;;;8.95;;
42832;SDS011;28479;51.478;5.692;2022-07-21T04:22:37;17.92;;;8.05;;
42832;SDS011;28479;51.478;5.692;2022-07-21T04:25:04;17.00;;;8.05;;
42832;SDS011;28479;51.478;5.692;2022-07-21T04:27:30;13.15;;;8.57;;
42832;SDS011;28479;51.478;5.692;2022-07-21T04:29:56;12.93;;;8.80;;
42832;SDS011;28479;51.478;5.692;2022-07-21T04:32:25;12.15;;;7.93;;
42832;SDS011;28479;51.478;5.692;2022-07-21T04:34:50;14.93;;;8.90;;
42832;SDS011;28479;51.478;5.692;2022-07-21T04:37:16;15.57;;;8.70;;
42832;SDS011;28479;51.478;5.692;2022-07-21T04:39:42;14.95;;;8.95;;
42832;SDS011;28479;51.478;5.692;2022-07-21T04:42:07;15.90;;;8.82;;
42832;SDS011;28479;51.478;5.692;2022-07-21T04:44:33;14.45;;;8.10;;
42832;SDS011;28479;51.478;5.692;2022-07-21T04:46:59;14.38;;;8.70;;
42832;SDS011;28479;51.478;5.692;2022-07-21T04:49:25;12.75;;;7.40;;
42832;SDS011;28479;51.478;5.692;2022-07-21T04:51:51;12.93;;;8.15;;
42832;SDS011;28479;51.478;5.692;2022-07-21T04:54:16;13.15;;;7.22;;
42832;SDS011;28479;51.478;5.692;2022-07-21T04:56:42;14.85;;;7.88;;
42832;SDS011;28479;51.478;5.692;2022-07-21T04:59:09;11.57;;;7.05;;
42832;SDS011;28479;51.478;5.692;2022-07-21T05:01:35;13.27;;;7.20;;
42832;SDS011;28479;51.478;5.692;2022-07-21T05:04:01;15.02;;;7.35;;
42832;SDS011;28479;51.478;5.692;2022-07-21T05:06:27;16.20;;;8.07;;
42832;SDS011;28479;51.478;5.692;2022-07-21T05:08:52;11.32;;;6.40;;
42832;SDS011;28479;51.478;5.692;2022-07-21T05:11:18;17.85;;;6.90;;
42832;SDS011;28479;51.478;5.692;2022-07-21T05:13:44;9.85;;;5.68;;
42832;SDS011;28479;51.478;5.692;2022-07-21T05:16:09;12.55;;;7.32;;
42832;SDS011;28479;51.478;5.692;2022-07-21T05:18:35;13.98;;;6.32;;
42832;SDS011;28479;51.478;5.692;2022-07-21T05:21:01;16.08;;;7.13;;
42832;SDS011;28479;51.478;5.692;2022-07-21T05:23:26;17.05;;;6.88;;
42832;SDS011;28479;51.478;5.692;2022-07-21T05:25:52;13.15;;;6.88;;
42832;SDS011;28479;51.478;5.692;2022-07-21T05:28:17;13.05;;;6.07;;
42832;SDS011;28479;51.478;5.692;2022-07-21T05:30:43;9.98;;;5.95;;
42832;SDS011;28479;51.478;5.692;2022-07-21T05:33:09;8.30;;;5.80;;
42832;SDS011;28479;51.478;5.692;2022-07-21T05:35:34;12.30;;;6.00;;
42832;SDS011;28479;51.478;5.692;2022-07-21T05:38:00;12.60;;;6.47;;
42832;SDS011;28479;51.478;5.692;2022-07-21T05:40:26;8.70;;;6.10;;
42832;SDS011;28479;51.478;5.692;2022-07-21T05:42:52;10.73;;;6.18;;
42832;SDS011;28479;51.478;5.692;2022-07-21T05:45:25;10.77;;;6.15;;
42832;SDS011;28479;51.478;5.692;2022-07-21T05:47:53;9.85;;;5.55;;
42832;SDS011;28479;51.478;5.692;2022-07-21T05:50:21;7.95;;;5.18;;
42832;SDS011;28479;51.478;5.692;2022-07-21T05:52:50;8.60;;;5.38;;
42832;SDS011;28479;51.478;5.692;2022-07-21T05:55:15;12.52;;;5.70;;
42832;SDS011;28479;51.478;5.692;2022-07-21T05:57:41;11.05;;;4.75;;
42832;SDS011;28479;51.478;5.692;2022-07-21T06:00:06;8.65;;;4.78;;
42832;SDS011;28479;51.478;5.692;2022-07-21T06:02:33;8.63;;;5.03;;
42832;SDS011;28479;51.478;5.692;2022-07-21T06:04:58;9.43;;;4.63;;
42832;SDS011;28479;51.478;5.692;2022-07-21T06:07:24;7.95;;;5.15;;
42832;SDS011;28479;51.478;5.692;2022-07-21T06:09:50;12.98;;;5.68;;
42832;SDS011;28479;51.478;5.692;2022-07-21T06:12:16;13.43;;;5.05;;
42832;SDS011;28479;51.478;5.692;2022-07-21T06:14:42;11.27;;;5.82;;
42832;SDS011;28479;51.478;5.692;2022-07-21T06:17:07;18.23;;;5.63;;
42832;SDS011;28479;51.478;5.692;2022-07-21T06:19:33;16.33;;;6.70;;
42832;SDS011;28479;51.478;5.692;2022-07-21T06:21:59;11.90;;;5.47;;
42832;SDS011;28479;51.478;5.692;2022-07-21T06:24:25;13.80;;;6.90;;
42832;SDS011;28479;51.478;5.692;2022-07-21T06:26:52;8.45;;;5.22;;
42832;SDS011;28479;51.478;5.692;2022-07-21T06:29:20;11.82;;;5.93;;
42832;SDS011;28479;51.478;5.692;2022-07-21T06:31:46;14.82;;;5.60;;
42832;SDS011;28479;51.478;5.692;2022-07-21T06:34:12;32.20;;;17.25;;
42832;SDS011;28479;51.478;5.692;2022-07-21T06:36:38;53.85;;;28.83;;
42832;SDS011;28479;51.478;5.692;2022-07-21T06:39:03;61.22;;;31.73;;
42832;SDS011;28479;51.478;5.692;2022-07-21T06:41:29;51.97;;;28.67;;
42832;SDS011;28479;51.478;5.692;2022-07-21T06:43:55;15.98;;;8.13;;
42832;SDS011;28479;51.478;5.692;2022-07-21T06:46:20;17.70;;;7.30;;
42832;SDS011;28479;51.478;5.692;2022-07-21T06:48:46;13.70;;;6.97;;
42832;SDS011;28479;51.478;5.692;2022-07-21T06:51:11;12.07;;;6.38;;
42832;SDS011;28479;51.478;5.692;2022-07-21T06:53:37;11.55;;;6.40;;
42832;SDS011;28479;51.478;5.692;2022-07-21T06:56:02;16.92;;;6.60;;
42832;SDS011;28479;51.478;5.692;2022-07-21T06:58:28;15.13;;;6.43;;
42832;SDS011;28479;51.478;5.692;2022-07-21T07:00:55;14.25;;;5.85;;
42832;SDS011;28479;51.478;5.692;2022-07-21T07:03:20;12.18;;;6.90;;
42832;SDS011;28479;51.478;5.692;2022-07-21T07:05:46;22.90;;;7.93;;
42832;SDS011;28479;51.478;5.692;2022-07-21T07:08:13;9.57;;;6.30;;
42832;SDS011;28479;51.478;5.692;2022-07-21T07:10:39;15.57;;;7.53;;
42832;SDS011;28479;51.478;5.692;2022-07-21T07:13:06;14.18;;;6.95;;
42832;SDS011;28479;51.478;5.692;2022-07-21T07:15:33;13.40;;;7.88;;
42832;SDS011;28479;51.478;5.692;2022-07-21T07:17:58;13.75;;;6.88;;
42832;SDS011;28479;51.478;5.692;2022-07-21T07:20:24;12.48;;;7.13;;
42832;SDS011;28479;51.478;5.692;2022-07-21T07:22:52;15.18;;;7.45;;
42832;SDS011;28479;51.478;5.692;2022-07-21T07:25:18;12.32;;;7.22;;
42832;SDS011;28479;51.478;5.692;2022-07-21T07:27:44;15.15;;;7.63;;
42832;SDS011;28479;51.478;5.692;2022-07-21T07:30:11;17.45;;;7.38;;
42832;SDS011;28479;51.478;5.692;2022-07-21T07:32:37;13.10;;;7.78;;
42832;SDS011;28479;51.478;5.692;2022-07-21T07:35:04;14.82;;;8.55;;
42832;SDS011;28479;51.478;5.692;2022-07-21T07:37:32;23.38;;;7.78;;
42832;SDS011;28479;51.478;5.692;2022-07-21T07:39:59;25.20;;;8.65;;
42832;SDS011;28479;51.478;5.692;2022-07-21T07:42:24;14.35;;;8.55;;
42832;SDS011;28479;51.478;5.692;2022-07-21T07:44:50;14.55;;;7.78;;
42832;SDS011;28479;51.478;5.692;2022-07-21T07:47:16;13.77;;;8.20;;
42832;SDS011;28479;51.478;5.692;2022-07-21T07:49:41;17.17;;;7.88;;
42832;SDS011;28479;51.478;5.692;2022-07-21T07:52:07;14.38;;;7.22;;
42832;SDS011;28479;51.478;5.692;2022-07-21T07:54:32;14.55;;;8.32;;
42832;SDS011;28479;51.478;5.692;2022-07-21T07:56:58;16.27;;;7.72;;
42832;SDS011;28479;51.478;5.692;2022-07-21T07:59:23;12.45;;;7.85;;
42832;SDS011;28479;51.478;5.692;2022-07-21T08:01:49;16.27;;;8.93;;
42832;SDS011;28479;51.478;5.692;2022-07-21T08:04:14;18.63;;;7.93;;
42832;SDS011;28479;51.478;5.692;2022-07-21T08:06:40;20.55;;;9.32;;
42832;SDS011;28479;51.478;5.692;2022-07-21T08:09:07;15.77;;;8.38;;
42832;SDS011;28479;51.478;5.692;2022-07-21T08:11:33;14.32;;;7.55;;
42832;SDS011;28479;51.478;5.692;2022-07-21T08:13:59;24.08;;;8.45;;
42832;SDS011;28479;51.478;5.692;2022-07-21T08:16:25;15.27;;;8.98;;
42832;SDS011;28479;51.478;5.692;2022-07-21T08:18:50;17.15;;;8.88;;
42832;SDS011;28479;51.478;5.692;2022-07-21T08:21:16;21.00;;;8.43;;
42832;SDS011;28479;51.478;5.692;2022-07-21T08:23:41;79.45;;;38.72;;
42832;SDS011;28479;51.478;5.692;2022-07-21T08:26:07;105.40;;;50.10;;
42832;SDS011;28479;51.478;5.692;2022-07-21T08:28:32;27.95;;;14.18;;
42832;SDS011;28479;51.478;5.692;2022-07-21T08:30:58;82.43;;;39.65;;
42832;SDS011;28479;51.478;5.692;2022-07-21T08:33:24;13.48;;;8.48;;
42832;SDS011;28479;51.478;5.692;2022-07-21T08:35:49;10.48;;;5.95;;
42832;SDS011;28479;51.478;5.692;2022-07-21T08:38:15;11.68;;;6.20;;
42832;SDS011;28479;51.478;5.692;2022-07-21T08:40:41;15.65;;;7.20;;
42832;SDS011;28479;51.478;5.692;2022-07-21T08:43:11;10.65;;;7.50;;
42832;SDS011;28479;51.478;5.692;2022-07-21T08:45:38;18.90;;;8.02;;
42832;SDS011;28479;51.478;5.692;2022-07-21T08:48:05;11.32;;;7.25;;
42832;SDS011;28479;51.478;5.692;2022-07-21T08:50:32;12.55;;;7.18;;
42832;SDS011;28479;51.478;5.692;2022-07-21T08:53:04;11.80;;;6.47;;
42832;SDS011;28479;51.478;5.692;2022-07-21T08:55:31;13.95;;;6.32;;
42832;SDS011;28479;51.478;5.692;2022-07-21T08:57:58;8.95;;;5.25;;
42832;SDS011;28479;51.478;5.692;2022-07-21T09:00:25;11.88;;;5.88;;
42832;SDS011;28479;51.478;5.692;2022-07-21T09:03:07;9.32;;;5.95;;
42832;SDS011;28479;51.478;5.692;2022-07-21T09:05:33;10.57;;;6.20;;
42832;SDS011;28479;51.478;5.692;2022-07-21T09:07:59;10.63;;;5.47;;
42832;SDS011;28479;51.478;5.692;2022-07-21T09:10:26;7.90;;;4.78;;
42832;SDS011;28479;51.478;5.692;2022-07-21T09:12:54;7.70;;;4.50;;
42832;SDS011;28479;51.478;5.692;2022-07-21T09:15:22;9.77;;;4.80;;
42832;SDS011;28479;51.478;5.692;2022-07-21T09:18:05;6.00;;;3.70;;
42832;SDS011;28479;51.478;5.692;2022-07-21T09:20:36;8.15;;;3.67;;
42832;SDS011;28479;51.478;5.692;2022-07-21T09:23:07;7.78;;;3.33;;
42832;SDS011;28479;51.478;5.692;2022-07-21T09:25:37;6.50;;;3.63;;
42832;SDS011;28479;51.478;5.692;2022-07-21T09:31:00;4.70;;;3.35;;
42832;SDS011;28479;51.478;5.692;2022-07-21T09:33:37;4.75;;;3.60;;
42832;SDS011;28479;51.478;5.692;2022-07-21T09:38:45;7.05;;;3.72;;
42832;SDS011;28479;51.478;5.692;2022-07-21T09:41:16;5.70;;;3.90;;
42832;SDS011;28479;51.478;5.692;2022-07-21T09:43:53;5.53;;;3.22;;
42832;SDS011;28479;51.478;5.692;2022-07-21T09:46:26;4.35;;;3.25;;
42832;SDS011;28479;51.478;5.692;2022-07-21T09:48:56;6.35;;;4.28;;
42832;SDS011;28479;51.478;5.692;2022-07-21T09:51:35;7.35;;;3.60;;
42832;SDS011;28479;51.478;5.692;2022-07-21T09:54:09;8.60;;;4.45;;
42832;SDS011;28479;51.478;5.692;2022-07-21T09:56:37;6.22;;;3.92;;
42832;SDS011;28479;51.478;5.692;2022-07-21T09:59:05;5.53;;;3.78;;
42832;SDS011;28479;51.478;5.692;2022-07-21T10:01:32;6.40;;;4.00;;
42832;SDS011;28479;51.478;5.692;2022-07-21T10:03:58;8.55;;;3.92;;
42832;SDS011;28479;51.478;5.692;2022-07-21T10:06:28;6.65;;;3.88;;
42832;SDS011;28479;51.478;5.692;2022-07-21T10:08:56;7.72;;;3.75;;
42832;SDS011;28479;51.478;5.692;2022-07-21T10:11:23;9.60;;;4.22;;
42832;SDS011;28479;51.478;5.692;2022-07-21T10:13:50;8.98;;;4.43;;
42832;SDS011;28479;51.478;5.692;2022-07-21T10:16:16;6.75;;;3.90;;
42832;SDS011;28479;51.478;5.692;2022-07-21T10:19:02;5.13;;;3.58;;
42832;SDS011;28479;51.478;5.692;2022-07-21T10:21:39;5.38;;;2.83;;
42832;SDS011;28479;51.478;5.692;2022-07-21T10:24:11;5.72;;;3.22;;
42832;SDS011;28479;51.478;5.692;2022-07-21T10:26:58;5.47;;;3.40;;
42832;SDS011;28479;51.478;5.692;2022-07-21T10:32:14;8.52;;;3.33;;
42832;SDS011;28479;51.478;5.692;2022-07-21T10:34:41;6.32;;;3.78;;
42832;SDS011;28479;51.478;5.692;2022-07-21T10:37:08;6.10;;;3.13;;
42832;SDS011;28479;51.478;5.692;2022-07-21T10:39:34;4.78;;;3.30;;
42832;SDS011;28479;51.478;5.692;2022-07-21T10:42:00;5.60;;;3.20;;
42832;SDS011;28479;51.478;5.692;2022-07-21T10:44:40;4.22;;;3.30;;
42832;SDS011;28479;51.478;5.692;2022-07-21T10:57:39;44.10;;;24.13;;
42832;SDS011;28479;51.478;5.692;2022-07-21T11:00:22;9.85;;;6.13;;
42832;SDS011;28479;51.478;5.692;2022-07-21T11:03:02;4.68;;;3.42;;
42832;SDS011;28479;51.478;5.692;2022-07-21T11:05:30;5.18;;;3.50;;
42832;SDS011;28479;51.478;5.692;2022-07-21T11:08:17;6.95;;;3.45;;
42832;SDS011;28479;51.478;5.692;2022-07-21T11:10:47;4.13;;;3.25;;
42832;SDS011;28479;51.478;5.692;2022-07-21T11:13:14;5.32;;;2.97;;
42832;SDS011;28479;51.478;5.692;2022-07-21T11:15:53;5.05;;;2.90;;
42832;SDS011;28479;51.478;5.692;2022-07-21T11:18:25;4.80;;;3.05;;
42832;SDS011;28479;51.478;5.692;2022-07-21T11:23:48;4.63;;;3.47;;
42832;SDS011;28479;51.478;5.692;2022-07-21T11:26:15;6.85;;;4.20;;
42832;SDS011;28479;51.478;5.692;2022-07-21T11:28:43;5.97;;;4.00;;
42832;SDS011;28479;51.478;5.692;2022-07-21T11:31:09;5.43;;;3.60;;
42832;SDS011;28479;51.478;5.692;2022-07-21T11:33:44;5.68;;;4.15;;
42832;SDS011;28479;51.478;5.692;2022-07-21T11:36:22;6.18;;;3.80;;
42832;SDS011;28479;51.478;5.692;2022-07-21T11:38:59;7.60;;;4.18;;
42832;SDS011;28479;51.478;5.692;2022-07-21T11:41:33;5.18;;;3.85;;
42832;SDS011;28479;51.478;5.692;2022-07-21T11:44:00;6.95;;;3.95;;
42832;SDS011;28479;51.478;5.692;2022-07-21T11:46:26;13.65;;;5.30;;
42832;SDS011;28479;51.478;5.692;2022-07-21T11:49:02;9.55;;;5.53;;
42832;SDS011;28479;51.478;5.692;2022-07-21T11:51:29;7.88;;;4.35;;
42832;SDS011;28479;51.478;5.692;2022-07-21T11:53:55;7.38;;;4.70;;
42832;SDS011;28479;51.478;5.692;2022-07-21T11:56:20;43.90;;;21.20;;
42832;SDS011;28479;51.478;5.692;2022-07-21T11:58:48;32.33;;;14.65;;
42832;SDS011;28479;51.478;5.692;2022-07-21T12:01:14;55.00;;;27.98;;
42832;SDS011;28479;51.478;5.692;2022-07-21T12:03:46;16.98;;;7.88;;
42832;SDS011;28479;51.478;5.692;2022-07-21T12:06:14;10.27;;;5.22;;
42832;SDS011;28479;51.478;5.692;2022-07-21T12:08:41;8.52;;;5.00;;
42832;SDS011;28479;51.478;5.692;2022-07-21T12:11:08;11.20;;;4.97;;
42832;SDS011;28479;51.478;5.692;2022-07-21T12:13:56;6.22;;;4.43;;
42832;SDS011;28479;51.478;5.692;2022-07-21T12:16:22;11.27;;;5.25;;
42832;SDS011;28479;51.478;5.692;2022-07-21T12:19:05;8.18;;;4.80;;
42832;SDS011;28479;51.478;5.692;2022-07-21T12:21:50;7.05;;;4.85;;
42832;SDS011;28479;51.478;5.692;2022-07-21T12:24:20;7.82;;;4.50;;
42832;SDS011;28479;51.478;5.692;2022-07-21T12:26:48;8.40;;;4.35;;
42832;SDS011;28479;51.478;5.692;2022-07-21T12:29:26;4.93;;;3.70;;
42832;SDS011;28479;51.478;5.692;2022-07-21T12:31:54;9.45;;;4.38;;
42832;SDS011;28479;51.478;5.692;2022-07-21T12:34:19;9.75;;;4.95;;
42832;SDS011;28479;51.478;5.692;2022-07-21T12:36:46;7.05;;;5.30;;
42832;SDS011;28479;51.478;5.692;2022-07-21T12:39:23;5.78;;;4.60;;
42832;SDS011;28479;51.478;5.692;2022-07-21T12:45:13;7.63;;;3.83;;
42832;SDS011;28479;51.478;5.692;2022-07-21T12:50:36;6.18;;;3.60;;
42832;SDS011;28479;51.478;5.692;2022-07-21T12:53:07;6.97;;;3.97;;
42832;SDS011;28479;51.478;5.692;2022-07-21T12:55:34;6.15;;;3.85;;
42832;SDS011;28479;51.478;5.692;2022-07-21T12:57:59;8.35;;;4.22;;
42832;SDS011;28479;51.478;5.692;2022-07-21T13:00:25;6.03;;;3.45;;
42832;SDS011;28479;51.478;5.692;2022-07-21T13:02:52;4.75;;;3.30;;
42832;SDS011;28479;51.478;5.692;2022-07-21T13:05:19;6.28;;;2.80;;
42832;SDS011;28479;51.478;5.692;2022-07-21T13:07:45;6.03;;;3.25;;
42832;SDS011;28479;51.478;5.692;2022-07-21T13:10:11;4.97;;;3.47;;
42832;SDS011;28479;51.478;5.692;2022-07-21T13:12:37;6.53;;;3.33;;
42832;SDS011;28479;51.478;5.692;2022-07-21T13:15:03;4.25;;;3.17;;
42832;SDS011;28479;51.478;5.692;2022-07-21T13:17:30;4.95;;;3.55;;
42832;SDS011;28479;51.478;5.692;2022-07-21T13:19:55;7.10;;;3.60;;
42832;SDS011;28479;51.478;5.692;2022-07-21T13:22:21;4.03;;;3.30;;
42832;SDS011;28479;51.478;5.692;2022-07-21T13:24:50;5.43;;;3.33;;
42832;SDS011;28479;51.478;5.692;2022-07-21T13:27:16;5.45;;;3.45;;
42832;SDS011;28479;51.478;5.692;2022-07-21T13:29:41;4.18;;;3.17;;
42832;SDS011;28479;51.478;5.692;2022-07-21T13:32:07;8.30;;;3.78;;
42832;SDS011;28479;51.478;5.692;2022-07-21T13:34:33;7.22;;;3.47;;
42832;SDS011;28479;51.478;5.692;2022-07-21T13:36:59;7.03;;;2.55;;
42832;SDS011;28479;51.478;5.692;2022-07-21T13:39:25;3.92;;;2.42;;
42832;SDS011;28479;51.478;5.692;2022-07-21T13:41:52;4.82;;;2.80;;
42832;SDS011;28479;51.478;5.692;2022-07-21T13:44:18;7.15;;;3.00;;
42832;SDS011;28479;51.478;5.692;2022-07-21T13:46:44;2.58;;;2.10;;
42832;SDS011;28479;51.478;5.692;2022-07-21T13:49:10;4.20;;;2.42;;
42832;SDS011;28479;51.478;5.692;2022-07-21T13:51:35;2.92;;;2.25;;
42832;SDS011;28479;51.478;5.692;2022-07-21T13:54:01;5.70;;;2.60;;
42832;SDS011;28479;51.478;5.692;2022-07-21T13:56:27;4.20;;;2.38;;
42832;SDS011;28479;51.478;5.692;2022-07-21T13:58:52;2.95;;;2.05;;
42832;SDS011;28479;51.478;5.692;2022-07-21T14:01:18;3.72;;;2.28;;
42832;SDS011;28479;51.478;5.692;2022-07-21T14:03:44;2.70;;;1.67;;
42832;SDS011;28479;51.478;5.692;2022-07-21T14:06:11;6.15;;;1.95;;
42832;SDS011;28479;51.478;5.692;2022-07-21T14:08:37;7.45;;;2.50;;
42832;SDS011;28479;51.478;5.692;2022-07-21T14:11:04;2.97;;;2.08;;
42832;SDS011;28479;51.478;5.692;2022-07-21T14:13:30;3.63;;;2.15;;
42832;SDS011;28479;51.478;5.692;2022-07-21T14:15:56;3.95;;;2.30;;
42832;SDS011;28479;51.478;5.692;2022-07-21T14:18:21;5.35;;;2.40;;
42832;SDS011;28479;51.478;5.692;2022-07-21T14:20:50;3.10;;;2.10;;
42832;SDS011;28479;51.478;5.692;2022-07-21T14:23:20;3.95;;;2.53;;
42832;SDS011;28479;51.478;5.692;2022-07-21T14:25:46;3.03;;;2.20;;
42832;SDS011;28479;51.478;5.692;2022-07-21T14:28:13;5.32;;;2.80;;
42832;SDS011;28479;51.478;5.692;2022-07-21T14:30:39;8.20;;;2.83;;
42832;SDS011;28479;51.478;5.692;2022-07-21T14:33:04;3.65;;;2.65;;
42832;SDS011;28479;51.478;5.692;2022-07-21T14:35:30;3.40;;;2.38;;
42832;SDS011;28479;51.478;5.692;2022-07-21T14:37:56;5.00;;;2.67;;
42832;SDS011;28479;51.478;5.692;2022-07-21T14:40:21;4.95;;;3.03;;
42832;SDS011;28479;51.478;5.692;2022-07-21T14:42:48;4.55;;;2.85;;
42832;SDS011;28479;51.478;5.692;2022-07-21T14:45:16;5.13;;;2.97;;
42832;SDS011;28479;51.478;5.692;2022-07-21T14:47:43;6.35;;;3.53;;
42832;SDS011;28479;51.478;5.692;2022-07-21T14:50:09;5.82;;;3.67;;
42832;SDS011;28479;51.478;5.692;2022-07-21T14:52:34;9.05;;;3.35;;
42832;SDS011;28479;51.478;5.692;2022-07-21T14:55:00;5.38;;;3.60;;
42832;SDS011;28479;51.478;5.692;2022-07-21T14:57:26;5.80;;;3.05;;
42832;SDS011;28479;51.478;5.692;2022-07-21T14:59:52;10.45;;;3.33;;
42832;SDS011;28479;51.478;5.692;2022-07-21T15:02:18;9.82;;;3.80;;
42832;SDS011;28479;51.478;5.692;2022-07-21T15:04:44;5.80;;;3.03;;
42832;SDS011;28479;51.478;5.692;2022-07-21T15:07:09;7.63;;;3.30;;
42832;SDS011;28479;51.478;5.692;2022-07-21T15:09:35;5.57;;;3.30;;
42832;SDS011;28479;51.478;5.692;2022-07-21T15:12:00;5.25;;;3.25;;
42832;SDS011;28479;51.478;5.692;2022-07-21T15:14:26;4.63;;;3.40;;
42832;SDS011;28479;51.478;5.692;2022-07-21T15:16:51;6.65;;;3.75;;